sensor_id;sensor_type;location;lat;lon;timestamp;P1;durP1;ratioP1;P2;durP2;ratioP2
43216;SDS011;60511;42.686;23.300;2023-05-21T00:01:30;8.07;;;7.00;;
43216;SDS011;60511;42.686;23.300;2023-05-21T00:03:31;8.07;;;6.85;;
43216;SDS011;60511;42.686;23.300;2023-05-21T00:05:31;10.45;;;6.90;;
43216;SDS011;60511;42.686;23.300;2023-05-21T00:07:32;8.18;;;6.38;;
43216;SDS011;60511;42.686;23.300;2023-05-21T00:09:34;7.28;;;6.43;;
43216;SDS011;60511;42.686;23.300;2023-05-21T00:11:37;7.60;;;6.57;;
43216;SDS011;60511;42.686;23.300;2023-05-21T00:13:37;6.45;;;5.85;;
43216;SDS011;60511;42.686;23.300;2023-05-21T00:15:37;12.25;;;7.13;;
43216;SDS011;60511;42.686;23.300;2023-05-21T00:17:38;8.55;;;6.60;;
43216;SDS011;60511;42.686;23.300;2023-05-21T00:19:38;7.45;;;6.65;;
43216;SDS011;60511;42.686;23.300;2023-05-21T00:21:40;9.90;;;7.18;;
43216;SDS011;60511;42.686;23.300;2023-05-21T00:23:40;8.75;;;6.85;;
43216;SDS011;60511;42.686;23.300;2023-05-21T00:25:41;7.55;;;6.78;;
43216;SDS011;60511;42.686;23.300;2023-05-21T00:27:43;8.75;;;6.05;;
43216;SDS011;60511;42.686;23.300;2023-05-21T00:29:43;7.28;;;6.40;;
43216;SDS011;60511;42.686;23.300;2023-05-21T00:31:43;7.60;;;6.35;;
43216;SDS011;60511;42.686;23.300;2023-05-21T00:33:44;9.02;;;6.53;;
43216;SDS011;60511;42.686;23.300;2023-05-21T00:35:44;7.90;;;6.60;;
43216;SDS011;60511;42.686;23.300;2023-05-21T00:37:45;7.93;;;7.13;;
43216;SDS011;60511;42.686;23.300;2023-05-21T00:39:46;10.32;;;6.53;;
43216;SDS011;60511;42.686;23.300;2023-05-21T00:41:47;6.70;;;6.13;;
43216;SDS011;60511;42.686;23.300;2023-05-21T00:43:47;8.93;;;6.93;;
43216;SDS011;60511;42.686;23.300;2023-05-21T00:45:47;7.38;;;6.05;;
43216;SDS011;60511;42.686;23.300;2023-05-21T00:47:48;7.10;;;6.45;;
43216;SDS011;60511;42.686;23.300;2023-05-21T00:49:53;7.53;;;6.65;;
43216;SDS011;60511;42.686;23.300;2023-05-21T00:51:54;7.15;;;6.55;;
43216;SDS011;60511;42.686;23.300;2023-05-21T00:53:55;9.57;;;6.32;;
43216;SDS011;60511;42.686;23.300;2023-05-21T00:55:56;6.93;;;5.90;;
43216;SDS011;60511;42.686;23.300;2023-05-21T00:57:56;9.20;;;6.18;;
43216;SDS011;60511;42.686;23.300;2023-05-21T00:59:57;7.03;;;6.28;;
43216;SDS011;60511;42.686;23.300;2023-05-21T01:01:57;9.30;;;6.22;;
43216;SDS011;60511;42.686;23.300;2023-05-21T01:04:03;6.75;;;6.13;;
43216;SDS011;60511;42.686;23.300;2023-05-21T01:06:04;7.50;;;5.80;;
43216;SDS011;60511;42.686;23.300;2023-05-21T01:08:06;6.85;;;6.13;;
43216;SDS011;60511;42.686;23.300;2023-05-21T01:12:10;7.03;;;6.07;;
43216;SDS011;60511;42.686;23.300;2023-05-21T01:14:12;7.18;;;6.25;;
43216;SDS011;60511;42.686;23.300;2023-05-21T01:16:16;6.30;;;5.43;;
43216;SDS011;60511;42.686;23.300;2023-05-21T01:18:16;6.57;;;5.88;;
43216;SDS011;60511;42.686;23.300;2023-05-21T01:20:20;6.78;;;5.40;;
43216;SDS011;60511;42.686;23.300;2023-05-21T01:22:22;7.53;;;6.47;;
43216;SDS011;60511;42.686;23.300;2023-05-21T01:24:24;8.90;;;5.97;;
43216;SDS011;60511;42.686;23.300;2023-05-21T01:26:25;6.65;;;5.95;;
43216;SDS011;60511;42.686;23.300;2023-05-21T01:28:27;7.30;;;6.32;;
43216;SDS011;60511;42.686;23.300;2023-05-21T01:30:28;6.40;;;5.70;;
43216;SDS011;60511;42.686;23.300;2023-05-21T01:32:34;7.18;;;6.47;;
43216;SDS011;60511;42.686;23.300;2023-05-21T01:34:49;6.95;;;6.25;;
43216;SDS011;60511;42.686;23.300;2023-05-21T01:37:10;6.95;;;6.15;;
43216;SDS011;60511;42.686;23.300;2023-05-21T01:39:21;7.35;;;5.40;;
43216;SDS011;60511;42.686;23.300;2023-05-21T01:41:25;7.22;;;5.97;;
43216;SDS011;60511;42.686;23.300;2023-05-21T01:43:28;6.63;;;5.97;;
43216;SDS011;60511;42.686;23.300;2023-05-21T01:47:33;6.97;;;5.93;;
43216;SDS011;60511;42.686;23.300;2023-05-21T01:49:36;7.67;;;6.43;;
43216;SDS011;60511;42.686;23.300;2023-05-21T01:51:38;6.18;;;5.30;;
43216;SDS011;60511;42.686;23.300;2023-05-21T01:53:39;6.82;;;6.13;;
43216;SDS011;60511;42.686;23.300;2023-05-21T01:55:40;6.10;;;5.50;;
43216;SDS011;60511;42.686;23.300;2023-05-21T01:57:41;8.30;;;6.15;;
43216;SDS011;60511;42.686;23.300;2023-05-21T01:59:42;7.10;;;6.05;;
43216;SDS011;60511;42.686;23.300;2023-05-21T02:01:43;6.07;;;5.47;;
43216;SDS011;60511;42.686;23.300;2023-05-21T02:03:43;7.38;;;5.75;;
43216;SDS011;60511;42.686;23.300;2023-05-21T02:05:43;7.85;;;6.07;;
43216;SDS011;60511;42.686;23.300;2023-05-21T02:07:44;5.88;;;5.28;;
43216;SDS011;60511;42.686;23.300;2023-05-21T02:09:46;6.07;;;5.18;;
43216;SDS011;60511;42.686;23.300;2023-05-21T02:11:46;6.88;;;5.10;;
43216;SDS011;60511;42.686;23.300;2023-05-21T02:13:47;6.47;;;5.70;;
43216;SDS011;60511;42.686;23.300;2023-05-21T02:15:47;6.05;;;5.45;;
43216;SDS011;60511;42.686;23.300;2023-05-21T02:17:47;7.05;;;5.47;;
43216;SDS011;60511;42.686;23.300;2023-05-21T02:19:50;8.57;;;6.47;;
43216;SDS011;60511;42.686;23.300;2023-05-21T02:21:50;6.82;;;6.00;;
43216;SDS011;60511;42.686;23.300;2023-05-21T02:23:51;6.90;;;5.78;;
43216;SDS011;60511;42.686;23.300;2023-05-21T02:25:51;7.43;;;5.78;;
43216;SDS011;60511;42.686;23.300;2023-05-21T02:27:52;6.40;;;5.38;;
43216;SDS011;60511;42.686;23.300;2023-05-21T02:29:52;7.65;;;6.13;;
43216;SDS011;60511;42.686;23.300;2023-05-21T02:31:53;5.88;;;5.25;;
43216;SDS011;60511;42.686;23.300;2023-05-21T02:33:53;6.22;;;5.40;;
43216;SDS011;60511;42.686;23.300;2023-05-21T02:35:53;5.65;;;4.90;;
43216;SDS011;60511;42.686;23.300;2023-05-21T02:37:54;6.50;;;5.50;;
43216;SDS011;60511;42.686;23.300;2023-05-21T02:39:58;5.43;;;4.93;;
43216;SDS011;60511;42.686;23.300;2023-05-21T02:41:59;5.80;;;5.15;;
43216;SDS011;60511;42.686;23.300;2023-05-21T02:43:59;8.13;;;5.03;;
43216;SDS011;60511;42.686;23.300;2023-05-21T02:46:00;6.95;;;5.03;;
43216;SDS011;60511;42.686;23.300;2023-05-21T02:48:00;6.15;;;5.38;;
43216;SDS011;60511;42.686;23.300;2023-05-21T02:50:01;5.68;;;5.18;;
43216;SDS011;60511;42.686;23.300;2023-05-21T02:52:01;7.00;;;5.38;;
43216;SDS011;60511;42.686;23.300;2023-05-21T02:54:02;6.97;;;5.15;;
43216;SDS011;60511;42.686;23.300;2023-05-21T02:56:03;7.45;;;5.53;;
43216;SDS011;60511;42.686;23.300;2023-05-21T02:58:04;8.07;;;5.07;;
43216;SDS011;60511;42.686;23.300;2023-05-21T03:00:05;7.65;;;5.38;;
43216;SDS011;60511;42.686;23.300;2023-05-21T03:02:07;7.00;;;5.25;;
43216;SDS011;60511;42.686;23.300;2023-05-21T03:04:07;5.32;;;4.63;;
43216;SDS011;60511;42.686;23.300;2023-05-21T03:06:08;7.53;;;5.40;;
43216;SDS011;60511;42.686;23.300;2023-05-21T03:08:09;6.03;;;5.00;;
43216;SDS011;60511;42.686;23.300;2023-05-21T03:10:10;6.63;;;5.07;;
43216;SDS011;60511;42.686;23.300;2023-05-21T03:12:10;5.90;;;4.90;;
43216;SDS011;60511;42.686;23.300;2023-05-21T03:14:11;6.13;;;5.53;;
43216;SDS011;60511;42.686;23.300;2023-05-21T03:16:13;6.90;;;5.45;;
43216;SDS011;60511;42.686;23.300;2023-05-21T03:18:13;6.35;;;5.50;;
43216;SDS011;60511;42.686;23.300;2023-05-21T03:20:14;7.72;;;4.88;;
43216;SDS011;60511;42.686;23.300;2023-05-21T03:22:15;5.20;;;4.70;;
43216;SDS011;60511;42.686;23.300;2023-05-21T03:24:15;6.50;;;4.97;;
43216;SDS011;60511;42.686;23.300;2023-05-21T03:26:16;5.15;;;4.65;;
43216;SDS011;60511;42.686;23.300;2023-05-21T03:28:17;6.65;;;5.10;;
43216;SDS011;60511;42.686;23.300;2023-05-21T03:30:17;6.05;;;5.20;;
43216;SDS011;60511;42.686;23.300;2023-05-21T03:32:17;5.25;;;4.75;;
43216;SDS011;60511;42.686;23.300;2023-05-21T03:34:19;6.22;;;5.05;;
43216;SDS011;60511;42.686;23.300;2023-05-21T03:36:20;6.22;;;5.45;;
43216;SDS011;60511;42.686;23.300;2023-05-21T03:38:20;7.60;;;5.30;;
43216;SDS011;60511;42.686;23.300;2023-05-21T03:40:21;5.38;;;4.88;;
43216;SDS011;60511;42.686;23.300;2023-05-21T03:42:21;5.55;;;5.05;;
43216;SDS011;60511;42.686;23.300;2023-05-21T03:44:21;5.85;;;4.85;;
43216;SDS011;60511;42.686;23.300;2023-05-21T03:46:22;5.97;;;5.40;;
43216;SDS011;60511;42.686;23.300;2023-05-21T03:48:23;6.95;;;5.43;;
43216;SDS011;60511;42.686;23.300;2023-05-21T03:50:24;5.82;;;5.07;;
43216;SDS011;60511;42.686;23.300;2023-05-21T03:52:24;6.15;;;5.05;;
43216;SDS011;60511;42.686;23.300;2023-05-21T03:54:24;5.63;;;5.10;;
43216;SDS011;60511;42.686;23.300;2023-05-21T03:56:25;7.72;;;5.07;;
43216;SDS011;60511;42.686;23.300;2023-05-21T03:58:25;5.70;;;5.05;;
43216;SDS011;60511;42.686;23.300;2023-05-21T04:00:27;5.68;;;5.13;;
43216;SDS011;60511;42.686;23.300;2023-05-21T04:02:27;7.18;;;5.30;;
43216;SDS011;60511;42.686;23.300;2023-05-21T04:04:27;5.47;;;4.90;;
43216;SDS011;60511;42.686;23.300;2023-05-21T04:06:28;5.80;;;5.20;;
43216;SDS011;60511;42.686;23.300;2023-05-21T04:08:29;7.60;;;5.78;;
43216;SDS011;60511;42.686;23.300;2023-05-21T04:10:29;7.90;;;5.80;;
43216;SDS011;60511;42.686;23.300;2023-05-21T04:12:30;5.43;;;4.93;;
43216;SDS011;60511;42.686;23.300;2023-05-21T04:14:30;7.07;;;6.20;;
43216;SDS011;60511;42.686;23.300;2023-05-21T04:16:31;5.88;;;5.25;;
43216;SDS011;60511;42.686;23.300;2023-05-21T04:18:34;8.35;;;6.53;;
43216;SDS011;60511;42.686;23.300;2023-05-21T04:20:34;5.95;;;5.35;;
43216;SDS011;60511;42.686;23.300;2023-05-21T04:22:35;7.53;;;5.40;;
43216;SDS011;60511;42.686;23.300;2023-05-21T04:24:35;6.25;;;5.65;;
43216;SDS011;60511;42.686;23.300;2023-05-21T04:26:37;7.15;;;5.90;;
43216;SDS011;60511;42.686;23.300;2023-05-21T04:28:40;5.50;;;5.00;;
43216;SDS011;60511;42.686;23.300;2023-05-21T04:30:41;6.13;;;5.53;;
43216;SDS011;60511;42.686;23.300;2023-05-21T04:32:41;6.78;;;5.25;;
43216;SDS011;60511;42.686;23.300;2023-05-21T04:34:44;6.50;;;5.18;;
43216;SDS011;60511;42.686;23.300;2023-05-21T04:36:45;6.03;;;5.30;;
43216;SDS011;60511;42.686;23.300;2023-05-21T04:38:45;7.13;;;5.22;;
43216;SDS011;60511;42.686;23.300;2023-05-21T04:40:47;6.45;;;5.85;;
43216;SDS011;60511;42.686;23.300;2023-05-21T04:42:49;7.07;;;5.40;;
43216;SDS011;60511;42.686;23.300;2023-05-21T04:44:50;7.82;;;5.70;;
43216;SDS011;60511;42.686;23.300;2023-05-21T04:46:50;6.65;;;4.93;;
43216;SDS011;60511;42.686;23.300;2023-05-21T04:48:51;5.85;;;5.18;;
43216;SDS011;60511;42.686;23.300;2023-05-21T04:50:55;6.93;;;4.95;;
43216;SDS011;60511;42.686;23.300;2023-05-21T04:52:56;6.03;;;5.30;;
43216;SDS011;60511;42.686;23.300;2023-05-21T04:54:58;7.47;;;5.38;;
43216;SDS011;60511;42.686;23.300;2023-05-21T04:56:58;6.05;;;5.25;;
43216;SDS011;60511;42.686;23.300;2023-05-21T04:58:59;8.20;;;6.10;;
43216;SDS011;60511;42.686;23.300;2023-05-21T05:01:00;7.70;;;6.32;;
43216;SDS011;60511;42.686;23.300;2023-05-21T05:03:03;5.68;;;5.13;;
43216;SDS011;60511;42.686;23.300;2023-05-21T05:05:04;5.97;;;5.38;;
43216;SDS011;60511;42.686;23.300;2023-05-21T05:07:04;6.45;;;4.90;;
43216;SDS011;60511;42.686;23.300;2023-05-21T05:09:05;8.90;;;5.53;;
43216;SDS011;60511;42.686;23.300;2023-05-21T05:11:05;6.75;;;5.45;;
43216;SDS011;60511;42.686;23.300;2023-05-21T05:13:06;7.60;;;4.57;;
43216;SDS011;60511;42.686;23.300;2023-05-21T05:15:06;6.60;;;5.10;;
43216;SDS011;60511;42.686;23.300;2023-05-21T05:17:07;5.25;;;4.75;;
43216;SDS011;60511;42.686;23.300;2023-05-21T05:19:08;8.45;;;5.80;;
43216;SDS011;60511;42.686;23.300;2023-05-21T05:21:09;5.70;;;5.10;;
43216;SDS011;60511;42.686;23.300;2023-05-21T05:23:09;6.43;;;5.50;;
43216;SDS011;60511;42.686;23.300;2023-05-21T05:25:10;6.15;;;5.35;;
43216;SDS011;60511;42.686;23.300;2023-05-21T05:27:10;5.75;;;5.15;;
43216;SDS011;60511;42.686;23.300;2023-05-21T05:29:10;5.45;;;4.95;;
43216;SDS011;60511;42.686;23.300;2023-05-21T05:31:11;6.93;;;4.80;;
43216;SDS011;60511;42.686;23.300;2023-05-21T05:33:11;7.07;;;5.15;;
43216;SDS011;60511;42.686;23.300;2023-05-21T05:35:12;9.48;;;5.45;;
43216;SDS011;60511;42.686;23.300;2023-05-21T05:37:13;5.50;;;5.00;;
43216;SDS011;60511;42.686;23.300;2023-05-21T05:39:13;5.93;;;5.25;;
43216;SDS011;60511;42.686;23.300;2023-05-21T05:41:13;5.63;;;4.72;;
43216;SDS011;60511;42.686;23.300;2023-05-21T05:43:14;6.18;;;5.28;;
43216;SDS011;60511;42.686;23.300;2023-05-21T05:45:14;6.35;;;5.13;;
43216;SDS011;60511;42.686;23.300;2023-05-21T05:47:15;6.75;;;4.97;;
43216;SDS011;60511;42.686;23.300;2023-05-21T05:49:15;5.80;;;5.10;;
43216;SDS011;60511;42.686;23.300;2023-05-21T05:51:16;6.82;;;4.82;;
43216;SDS011;60511;42.686;23.300;2023-05-21T05:53:16;6.82;;;5.10;;
43216;SDS011;60511;42.686;23.300;2023-05-21T05:55:17;6.20;;;5.40;;
43216;SDS011;60511;42.686;23.300;2023-05-21T05:57:17;6.07;;;4.45;;
43216;SDS011;60511;42.686;23.300;2023-05-21T05:59:19;7.57;;;4.82;;
43216;SDS011;60511;42.686;23.300;2023-05-21T06:01:20;5.93;;;5.10;;
43216;SDS011;60511;42.686;23.300;2023-05-21T06:03:25;8.90;;;4.65;;
43216;SDS011;60511;42.686;23.300;2023-05-21T06:05:25;7.90;;;5.55;;
43216;SDS011;60511;42.686;23.300;2023-05-21T06:07:26;6.32;;;5.15;;
43216;SDS011;60511;42.686;23.300;2023-05-21T06:09:27;5.63;;;4.72;;
43216;SDS011;60511;42.686;23.300;2023-05-21T06:11:27;5.68;;;5.00;;
43216;SDS011;60511;42.686;23.300;2023-05-21T06:13:28;7.25;;;5.68;;
43216;SDS011;60511;42.686;23.300;2023-05-21T06:15:28;5.55;;;4.88;;
43216;SDS011;60511;42.686;23.300;2023-05-21T06:17:29;5.53;;;4.60;;
43216;SDS011;60511;42.686;23.300;2023-05-21T06:19:31;5.35;;;4.68;;
43216;SDS011;60511;42.686;23.300;2023-05-21T06:21:31;5.57;;;4.65;;
43216;SDS011;60511;42.686;23.300;2023-05-21T06:23:32;7.60;;;4.63;;
43216;SDS011;60511;42.686;23.300;2023-05-21T06:25:34;5.78;;;4.43;;
43216;SDS011;60511;42.686;23.300;2023-05-21T06:27:35;5.30;;;4.75;;
43216;SDS011;60511;42.686;23.300;2023-05-21T06:29:36;6.88;;;4.30;;
43216;SDS011;60511;42.686;23.300;2023-05-21T06:31:37;6.65;;;4.50;;
43216;SDS011;60511;42.686;23.300;2023-05-21T06:33:37;5.85;;;4.60;;
43216;SDS011;60511;42.686;23.300;2023-05-21T06:35:37;5.95;;;4.55;;
43216;SDS011;60511;42.686;23.300;2023-05-21T06:37:39;6.47;;;4.57;;
43216;SDS011;60511;42.686;23.300;2023-05-21T06:39:39;5.25;;;4.20;;
43216;SDS011;60511;42.686;23.300;2023-05-21T06:41:39;6.68;;;4.43;;
43216;SDS011;60511;42.686;23.300;2023-05-21T06:43:40;5.03;;;4.53;;
43216;SDS011;60511;42.686;23.300;2023-05-21T06:45:40;4.25;;;3.88;;
43216;SDS011;60511;42.686;23.300;2023-05-21T06:47:41;5.15;;;4.00;;
43216;SDS011;60511;42.686;23.300;2023-05-21T06:49:41;4.63;;;4.22;;
43216;SDS011;60511;42.686;23.300;2023-05-21T06:51:41;5.82;;;4.22;;
43216;SDS011;60511;42.686;23.300;2023-05-21T06:53:42;4.82;;;4.30;;
43216;SDS011;60511;42.686;23.300;2023-05-21T06:55:43;6.40;;;4.82;;
43216;SDS011;60511;42.686;23.300;2023-05-21T06:57:43;6.18;;;4.30;;
43216;SDS011;60511;42.686;23.300;2023-05-21T06:59:44;4.70;;;4.28;;
43216;SDS011;60511;42.686;23.300;2023-05-21T07:01:44;4.63;;;4.18;;
43216;SDS011;60511;42.686;23.300;2023-05-21T07:03:45;6.30;;;4.50;;
43216;SDS011;60511;42.686;23.300;2023-05-21T07:05:45;6.30;;;4.57;;
43216;SDS011;60511;42.686;23.300;2023-05-21T07:07:45;5.95;;;4.32;;
43216;SDS011;60511;42.686;23.300;2023-05-21T07:09:46;5.88;;;5.13;;
43216;SDS011;60511;42.686;23.300;2023-05-21T07:11:46;5.07;;;4.40;;
43216;SDS011;60511;42.686;23.300;2023-05-21T07:13:47;6.45;;;4.43;;
43216;SDS011;60511;42.686;23.300;2023-05-21T07:15:48;4.82;;;4.05;;
43216;SDS011;60511;42.686;23.300;2023-05-21T07:17:49;4.68;;;3.60;;
43216;SDS011;60511;42.686;23.300;2023-05-21T07:19:49;4.50;;;4.10;;
43216;SDS011;60511;42.686;23.300;2023-05-21T07:21:49;5.00;;;4.28;;
43216;SDS011;60511;42.686;23.300;2023-05-21T07:23:50;4.75;;;4.10;;
43216;SDS011;60511;42.686;23.300;2023-05-21T07:25:50;5.18;;;4.45;;
43216;SDS011;60511;42.686;23.300;2023-05-21T07:27:51;4.32;;;3.92;;
43216;SDS011;60511;42.686;23.300;2023-05-21T07:29:51;4.80;;;4.32;;
43216;SDS011;60511;42.686;23.300;2023-05-21T07:31:52;4.22;;;3.83;;
43216;SDS011;60511;42.686;23.300;2023-05-21T07:33:53;5.55;;;4.13;;
43216;SDS011;60511;42.686;23.300;2023-05-21T07:35:54;4.68;;;4.10;;
43216;SDS011;60511;42.686;23.300;2023-05-21T07:37:56;5.10;;;4.07;;
43216;SDS011;60511;42.686;23.300;2023-05-21T07:39:56;4.90;;;4.40;;
43216;SDS011;60511;42.686;23.300;2023-05-21T07:42:00;5.93;;;3.92;;
43216;SDS011;60511;42.686;23.300;2023-05-21T07:44:01;4.47;;;4.07;;
43216;SDS011;60511;42.686;23.300;2023-05-21T07:46:03;5.30;;;4.80;;
43216;SDS011;60511;42.686;23.300;2023-05-21T07:48:03;4.97;;;3.95;;
43216;SDS011;60511;42.686;23.300;2023-05-21T07:50:04;5.10;;;4.40;;
43216;SDS011;60511;42.686;23.300;2023-05-21T07:52:05;6.53;;;4.70;;
43216;SDS011;60511;42.686;23.300;2023-05-21T07:54:05;6.85;;;4.00;;
43216;SDS011;60511;42.686;23.300;2023-05-21T07:56:06;5.30;;;3.65;;
43216;SDS011;60511;42.686;23.300;2023-05-21T07:58:07;5.45;;;3.42;;
43216;SDS011;60511;42.686;23.300;2023-05-21T08:00:08;4.03;;;2.83;;
43216;SDS011;60511;42.686;23.300;2023-05-21T08:02:13;4.38;;;3.47;;
43216;SDS011;60511;42.686;23.300;2023-05-21T08:04:13;4.57;;;3.05;;
43216;SDS011;60511;42.686;23.300;2023-05-21T08:06:13;5.32;;;3.40;;
43216;SDS011;60511;42.686;23.300;2023-05-21T08:08:14;4.03;;;3.30;;
43216;SDS011;60511;42.686;23.300;2023-05-21T08:10:16;4.93;;;3.40;;
43216;SDS011;60511;42.686;23.300;2023-05-21T08:12:17;4.75;;;3.83;;
43216;SDS011;60511;42.686;23.300;2023-05-21T08:14:18;4.25;;;3.55;;
43216;SDS011;60511;42.686;23.300;2023-05-21T08:16:19;4.35;;;3.95;;
43216;SDS011;60511;42.686;23.300;2023-05-21T08:18:20;4.40;;;3.83;;
43216;SDS011;60511;42.686;23.300;2023-05-21T08:20:22;5.43;;;3.78;;
43216;SDS011;60511;42.686;23.300;2023-05-21T08:22:23;4.38;;;3.70;;
43216;SDS011;60511;42.686;23.300;2023-05-21T08:24:24;5.28;;;4.15;;
43216;SDS011;60511;42.686;23.300;2023-05-21T08:26:25;7.65;;;3.92;;
43216;SDS011;60511;42.686;23.300;2023-05-21T08:28:25;6.60;;;4.15;;
43216;SDS011;60511;42.686;23.300;2023-05-21T08:30:27;4.25;;;3.83;;
43216;SDS011;60511;42.686;23.300;2023-05-21T08:32:29;5.05;;;3.65;;
43216;SDS011;60511;42.686;23.300;2023-05-21T08:34:29;4.43;;;3.60;;
43216;SDS011;60511;42.686;23.300;2023-05-21T08:36:31;4.65;;;3.78;;
43216;SDS011;60511;42.686;23.300;2023-05-21T08:38:31;5.55;;;3.78;;
43216;SDS011;60511;42.686;23.300;2023-05-21T08:40:33;4.20;;;3.50;;
43216;SDS011;60511;42.686;23.300;2023-05-21T08:42:44;5.57;;;3.42;;
43216;SDS011;60511;42.686;23.300;2023-05-21T08:44:46;4.95;;;3.67;;
43216;SDS011;60511;42.686;23.300;2023-05-21T08:46:51;4.10;;;3.47;;
43216;SDS011;60511;42.686;23.300;2023-05-21T08:48:54;5.20;;;3.42;;
43216;SDS011;60511;42.686;23.300;2023-05-21T08:50:54;6.13;;;3.42;;
43216;SDS011;60511;42.686;23.300;2023-05-21T08:52:55;5.22;;;3.70;;
43216;SDS011;60511;42.686;23.300;2023-05-21T08:54:57;4.53;;;3.87;;
43216;SDS011;60511;42.686;23.300;2023-05-21T08:56:59;8.30;;;3.65;;
43216;SDS011;60511;42.686;23.300;2023-05-21T08:59:01;6.65;;;3.58;;
43216;SDS011;60511;42.686;23.300;2023-05-21T09:01:02;6.10;;;3.90;;
43216;SDS011;60511;42.686;23.300;2023-05-21T09:03:04;7.35;;;4.45;;
43216;SDS011;60511;42.686;23.300;2023-05-21T09:05:09;6.60;;;4.07;;
43216;SDS011;60511;42.686;23.300;2023-05-21T09:07:11;7.40;;;3.88;;
43216;SDS011;60511;42.686;23.300;2023-05-21T09:09:27;5.35;;;4.15;;
43216;SDS011;60511;42.686;23.300;2023-05-21T09:11:33;4.88;;;3.85;;
43216;SDS011;60511;42.686;23.300;2023-05-21T09:13:33;7.07;;;3.90;;
43216;SDS011;60511;42.686;23.300;2023-05-21T09:15:35;6.55;;;4.20;;
43216;SDS011;60511;42.686;23.300;2023-05-21T09:17:36;7.65;;;4.93;;
43216;SDS011;60511;42.686;23.300;2023-05-21T09:19:36;6.20;;;3.53;;
43216;SDS011;60511;42.686;23.300;2023-05-21T09:21:36;10.57;;;4.68;;
43216;SDS011;60511;42.686;23.300;2023-05-21T09:23:38;7.82;;;4.20;;
43216;SDS011;60511;42.686;23.300;2023-05-21T09:25:38;7.25;;;4.10;;
43216;SDS011;60511;42.686;23.300;2023-05-21T09:27:39;6.35;;;3.88;;
43216;SDS011;60511;42.686;23.300;2023-05-21T09:29:40;8.93;;;4.88;;
43216;SDS011;60511;42.686;23.300;2023-05-21T09:31:43;10.05;;;3.97;;
43216;SDS011;60511;42.686;23.300;2023-05-21T09:33:44;6.43;;;3.80;;
43216;SDS011;60511;42.686;23.300;2023-05-21T09:35:46;7.38;;;4.32;;
43216;SDS011;60511;42.686;23.300;2023-05-21T09:37:48;7.68;;;4.40;;
43216;SDS011;60511;42.686;23.300;2023-05-21T09:39:49;7.10;;;4.22;;
43216;SDS011;60511;42.686;23.300;2023-05-21T09:41:51;6.00;;;4.15;;
43216;SDS011;60511;42.686;23.300;2023-05-21T09:43:52;5.88;;;3.47;;
43216;SDS011;60511;42.686;23.300;2023-05-21T09:45:58;5.03;;;3.65;;
43216;SDS011;60511;42.686;23.300;2023-05-21T09:47:59;8.27;;;4.07;;
43216;SDS011;60511;42.686;23.300;2023-05-21T09:50:00;5.38;;;3.97;;
43216;SDS011;60511;42.686;23.300;2023-05-21T09:52:00;5.40;;;4.35;;
43216;SDS011;60511;42.686;23.300;2023-05-21T09:54:01;7.50;;;4.18;;
43216;SDS011;60511;42.686;23.300;2023-05-21T09:56:02;12.43;;;4.50;;
43216;SDS011;60511;42.686;23.300;2023-05-21T09:58:02;5.38;;;4.05;;
43216;SDS011;60511;42.686;23.300;2023-05-21T10:00:03;6.07;;;4.00;;
43216;SDS011;60511;42.686;23.300;2023-05-21T10:04:36;8.32;;;3.83;;
43216;SDS011;60511;42.686;23.300;2023-05-21T10:06:39;5.07;;;4.05;;
43216;SDS011;60511;42.686;23.300;2023-05-21T10:08:41;5.25;;;3.75;;
43216;SDS011;60511;42.686;23.300;2023-05-21T10:10:44;8.32;;;4.40;;
43216;SDS011;60511;42.686;23.300;2023-05-21T10:12:55;7.00;;;4.18;;
43216;SDS011;60511;42.686;23.300;2023-05-21T10:15:03;8.18;;;4.00;;
43216;SDS011;60511;42.686;23.300;2023-05-21T10:17:08;5.72;;;3.58;;
43216;SDS011;60511;42.686;23.300;2023-05-21T10:19:11;8.80;;;4.15;;
43216;SDS011;60511;42.686;23.300;2023-05-21T10:21:13;5.70;;;3.88;;
43216;SDS011;60511;42.686;23.300;2023-05-21T10:23:14;4.72;;;3.83;;
43216;SDS011;60511;42.686;23.300;2023-05-21T10:25:16;5.32;;;3.85;;
43216;SDS011;60511;42.686;23.300;2023-05-21T10:27:17;5.88;;;4.18;;
43216;SDS011;60511;42.686;23.300;2023-05-21T10:29:19;5.13;;;4.00;;
43216;SDS011;60511;42.686;23.300;2023-05-21T10:31:22;5.00;;;3.83;;
43216;SDS011;60511;42.686;23.300;2023-05-21T10:33:23;5.03;;;3.95;;
43216;SDS011;60511;42.686;23.300;2023-05-21T10:35:25;5.05;;;4.10;;
43216;SDS011;60511;42.686;23.300;2023-05-21T10:37:27;6.72;;;4.75;;
43216;SDS011;60511;42.686;23.300;2023-05-21T10:39:28;6.43;;;4.50;;
43216;SDS011;60511;42.686;23.300;2023-05-21T10:41:45;3.97;;;3.50;;
43216;SDS011;60511;42.686;23.300;2023-05-21T11:00:16;5.70;;;3.90;;
43216;SDS011;60511;42.686;23.300;2023-05-21T11:02:20;5.20;;;3.50;;
43216;SDS011;60511;42.686;23.300;2023-05-21T11:04:21;5.90;;;4.00;;
43216;SDS011;60511;42.686;23.300;2023-05-21T11:06:25;3.97;;;3.58;;
43216;SDS011;60511;42.686;23.300;2023-05-21T11:08:27;5.50;;;4.20;;
43216;SDS011;60511;42.686;23.300;2023-05-21T11:10:36;7.43;;;4.20;;
43216;SDS011;60511;42.686;23.300;2023-05-21T11:13:03;5.15;;;3.22;;
43216;SDS011;60511;42.686;23.300;2023-05-21T11:15:05;5.53;;;4.18;;
43216;SDS011;60511;42.686;23.300;2023-05-21T11:19:13;5.50;;;3.40;;
43216;SDS011;60511;42.686;23.300;2023-05-21T11:21:17;6.55;;;4.28;;
43216;SDS011;60511;42.686;23.300;2023-05-21T11:23:31;4.05;;;3.40;;
43216;SDS011;60511;42.686;23.300;2023-05-21T11:26:00;4.40;;;4.00;;
43216;SDS011;60511;42.686;23.300;2023-05-21T11:28:04;6.00;;;3.75;;
43216;SDS011;60511;42.686;23.300;2023-05-21T11:30:08;4.60;;;3.30;;
43216;SDS011;60511;42.686;23.300;2023-05-21T11:32:14;3.78;;;3.33;;
43216;SDS011;60511;42.686;23.300;2023-05-21T11:34:19;5.90;;;3.28;;
43216;SDS011;60511;42.686;23.300;2023-05-21T11:36:27;6.25;;;3.90;;
43216;SDS011;60511;42.686;23.300;2023-05-21T11:38:28;3.78;;;3.47;;
43216;SDS011;60511;42.686;23.300;2023-05-21T11:40:32;4.05;;;3.38;;
43216;SDS011;60511;42.686;23.300;2023-05-21T11:42:37;4.53;;;4.10;;
43216;SDS011;60511;42.686;23.300;2023-05-21T11:44:42;4.20;;;3.78;;
43216;SDS011;60511;42.686;23.300;2023-05-21T11:46:43;4.15;;;3.75;;
43216;SDS011;60511;42.686;23.300;2023-05-21T11:48:46;4.70;;;3.22;;
43216;SDS011;60511;42.686;23.300;2023-05-21T11:50:47;4.28;;;3.55;;
43216;SDS011;60511;42.686;23.300;2023-05-21T11:52:48;4.68;;;3.17;;
43216;SDS011;60511;42.686;23.300;2023-05-21T11:54:52;5.05;;;4.03;;
43216;SDS011;60511;42.686;23.300;2023-05-21T11:56:57;5.20;;;3.40;;
43216;SDS011;60511;42.686;23.300;2023-05-21T11:59:00;5.18;;;3.83;;
43216;SDS011;60511;42.686;23.300;2023-05-21T12:01:01;6.78;;;3.42;;
43216;SDS011;60511;42.686;23.300;2023-05-21T12:03:02;4.05;;;3.15;;
43216;SDS011;60511;42.686;23.300;2023-05-21T12:05:04;4.68;;;2.92;;
43216;SDS011;60511;42.686;23.300;2023-05-21T12:07:05;3.95;;;3.40;;
43216;SDS011;60511;42.686;23.300;2023-05-21T12:09:10;5.78;;;3.90;;
43216;SDS011;60511;42.686;23.300;2023-05-21T12:11:10;5.28;;;3.40;;
43216;SDS011;60511;42.686;23.300;2023-05-21T12:13:11;4.43;;;3.40;;
43216;SDS011;60511;42.686;23.300;2023-05-21T12:15:13;5.20;;;3.20;;
43216;SDS011;60511;42.686;23.300;2023-05-21T12:17:17;3.80;;;3.33;;
43216;SDS011;60511;42.686;23.300;2023-05-21T12:19:19;4.05;;;3.65;;
43216;SDS011;60511;42.686;23.300;2023-05-21T12:21:20;6.75;;;3.50;;
43216;SDS011;60511;42.686;23.300;2023-05-21T12:23:23;3.90;;;3.50;;
43216;SDS011;60511;42.686;23.300;2023-05-21T12:25:24;4.38;;;3.65;;
43216;SDS011;60511;42.686;23.300;2023-05-21T12:27:24;4.22;;;3.25;;